Genoa, Nebraska
Current Conditions -  °F | °C
As of 6:35 PM on Thursday 27 Nov 2014 (Local Time) from KOLU Reporting Station
Clear Clear  
Wind Chill: 14°   Ceiling: Unl
Heat Index: 25°   Visibility: 10mi
Dew Point: 12°   Wind: 12mph
Humidity: 59%   Direction: 120°ESE
Pressure: 30.2"   Gusts: NA
Location:  41.45°N, 97.73°W
Report Text: KOLU 280035Z AUTO 12010KT 10SM CLR M04/M11 A3020 RMK AO1
Loading
Personal Weather Stations






























Interactive Weather Map New forecast layout! Learn more

10-Day Weather Forecast

Advertisements
Track Severe Weather on mobile